createdAt,value
2019-01-12T00:01:02.344Z,4.10
2019-01-12T00:04:05.357Z,5.07
2019-01-12T00:07:08.085Z,5.37
2019-01-12T00:10:10.791Z,5.67
2019-01-12T00:13:13.625Z,4.60
2019-01-12T00:16:16.296Z,4.30
2019-01-12T00:19:18.908Z,4.57
2019-01-12T00:22:21.567Z,4.30
2019-01-12T00:25:24.498Z,4.97
2019-01-12T00:28:27.182Z,4.47
2019-01-12T00:31:29.778Z,5.00
2019-01-12T00:34:32.447Z,5.53
2019-01-12T00:37:35.028Z,4.27
2019-01-12T00:40:37.800Z,4.70
2019-01-12T00:43:40.435Z,4.13
2019-01-12T00:46:43.128Z,4.20
2019-01-12T00:49:45.866Z,4.57
2019-01-12T00:52:48.449Z,5.10
2019-01-12T00:55:51.063Z,5.43
2019-01-12T00:58:53.797Z,5.60
2019-01-12T01:01:57.330Z,4.20
2019-01-12T01:05:01.512Z,4.70
2019-01-12T01:08:05.395Z,5.27
2019-01-12T01:11:08.076Z,5.13
2019-01-12T01:14:10.770Z,8.10
2019-01-12T01:17:13.376Z,4.90
2019-01-12T01:20:16.769Z,5.13
2019-01-12T01:23:19.550Z,5.27
2019-01-12T01:26:22.467Z,4.33
2019-01-12T01:29:25.225Z,5.40
2019-01-12T01:32:27.838Z,5.00
2019-01-12T01:35:30.428Z,5.33
2019-01-12T01:38:33.111Z,4.80
2019-01-12T01:41:35.784Z,5.90
2019-01-12T01:44:38.486Z,4.53
2019-01-12T01:47:41.157Z,5.70
2019-01-12T01:50:43.831Z,7.63
2019-01-12T01:53:46.677Z,6.07
2019-01-12T01:56:49.423Z,7.33
2019-01-12T01:59:52.147Z,5.57
2019-01-12T02:02:54.803Z,6.57
2019-01-12T02:05:58.280Z,5.90
2019-01-12T02:09:00.995Z,5.83
2019-01-12T02:16:03.927Z,7.50
2019-01-12T02:19:06.734Z,7.30
2019-01-12T02:22:09.381Z,7.20
2019-01-12T02:25:12.323Z,7.03
2019-01-12T02:28:14.892Z,9.50
2019-01-12T02:31:17.607Z,9.67
2019-01-12T02:34:39.687Z,13.33
2019-01-12T02:37:42.376Z,14.10
2019-01-12T02:40:45.065Z,11.57
2019-01-12T02:43:47.792Z,9.67
2019-01-12T02:46:50.509Z,9.67
2019-01-12T02:49:53.249Z,8.67
2019-01-12T02:52:55.793Z,9.10
2019-01-12T02:55:58.373Z,10.37
2019-01-12T02:59:01.075Z,11.07
2019-01-12T03:02:04.560Z,12.33
2019-01-12T03:05:07.279Z,10.57
2019-01-12T03:08:09.937Z,10.93
2019-01-12T03:11:15.331Z,9.87
2019-01-12T03:14:18.085Z,10.07
2019-01-12T03:17:21.873Z,10.27
2019-01-12T03:20:24.628Z,11.60
2019-01-12T03:23:27.346Z,9.43
2019-01-12T03:26:30.014Z,10.57
2019-01-12T03:29:32.680Z,7.50
2019-01-12T03:32:35.259Z,7.63
2019-01-12T03:35:38.038Z,8.03
2019-01-12T03:38:41.821Z,9.57
2019-01-12T03:41:44.619Z,9.47
2019-01-12T03:44:47.233Z,9.00
2019-01-12T03:47:49.991Z,8.83
2019-01-12T03:50:52.636Z,7.70
2019-01-12T03:53:55.345Z,8.63
2019-01-12T03:56:58.020Z,7.77
2019-01-12T04:00:00.691Z,8.97
2019-01-12T04:03:03.393Z,7.47
2019-01-12T04:06:06.066Z,9.23
2019-01-12T04:09:08.803Z,8.83
2019-01-12T04:12:11.512Z,6.93
2019-01-12T04:15:14.208Z,7.67
2019-01-12T04:18:16.811Z,7.00
2019-01-12T04:21:19.336Z,9.27
2019-01-12T04:24:21.903Z,9.93
2019-01-12T04:27:24.438Z,9.90
2019-01-12T04:30:27.179Z,8.77
2019-01-12T04:33:29.870Z,10.90
2019-01-12T04:36:32.585Z,10.13
2019-01-12T04:39:35.250Z,8.30
2019-01-12T04:42:37.958Z,10.83
2019-01-12T04:50:04.611Z,17.20
2019-01-12T04:53:07.351Z,12.30
2019-01-12T04:56:10.076Z,12.53
2019-01-12T04:59:12.701Z,11.07
2019-01-12T05:02:15.412Z,13.07
2019-01-12T05:05:18.170Z,12.83
2019-01-12T05:08:20.801Z,15.00
2019-01-12T05:11:23.367Z,12.23
2019-01-12T05:14:26.247Z,12.97
2019-01-12T05:17:28.890Z,13.37
2019-01-12T05:20:31.554Z,12.17
2019-01-12T05:23:34.302Z,12.60
2019-01-12T05:26:36.989Z,16.30
2019-01-12T05:29:39.777Z,13.90
2019-01-12T05:32:42.452Z,14.43
2019-01-12T05:35:45.002Z,15.67
2019-01-12T05:38:47.575Z,11.80
2019-01-12T05:41:50.239Z,14.83
2019-01-12T05:48:51.014Z,14.33
2019-01-12T05:51:53.587Z,20.90
2019-01-12T05:54:56.252Z,21.50
2019-01-12T05:57:58.888Z,17.40
2019-01-12T06:01:01.487Z,20.43
2019-01-12T06:04:04.141Z,20.30
2019-01-12T06:07:06.828Z,22.97
2019-01-12T06:10:09.591Z,21.97
2019-01-12T06:13:12.183Z,21.53
2019-01-12T06:16:14.872Z,23.37
2019-01-12T06:19:17.431Z,25.43
2019-01-12T06:22:20.138Z,25.77
2019-01-12T06:25:22.805Z,25.90
2019-01-12T06:28:25.453Z,23.67
2019-01-12T06:31:28.097Z,23.23
2019-01-12T06:34:30.858Z,25.53
2019-01-12T06:37:33.542Z,25.53
2019-01-12T06:40:36.252Z,21.00
2019-01-12T06:43:39.052Z,23.10
2019-01-12T06:46:41.725Z,24.03
2019-01-12T06:49:44.256Z,22.03
2019-01-12T06:52:47.147Z,20.07
2019-01-12T06:55:49.833Z,21.87
2019-01-12T06:58:52.484Z,20.40
2019-01-12T07:01:55.215Z,20.57
2019-01-12T07:04:57.956Z,21.50
2019-01-12T07:08:00.711Z,33.37
2019-01-12T07:11:03.408Z,25.93
2019-01-12T07:14:06.107Z,19.47
2019-01-12T07:17:08.667Z,22.23
2019-01-12T07:20:15.942Z,21.67
2019-01-12T07:23:18.685Z,21.00
2019-01-12T07:26:21.345Z,22.80
2019-01-12T07:29:24.085Z,24.30
2019-01-12T07:32:26.698Z,23.33
2019-01-12T07:35:29.353Z,22.70
2019-01-12T07:38:32.000Z,25.50
2019-01-12T07:41:34.630Z,22.87
2019-01-12T07:44:37.176Z,26.30
2019-01-12T07:47:39.929Z,22.53
2019-01-12T07:50:42.539Z,26.03
2019-01-12T07:53:45.161Z,25.07
2019-01-12T07:56:47.747Z,24.77
2019-01-12T07:59:50.433Z,26.73
2019-01-12T08:02:53.104Z,24.67
2019-01-12T08:05:55.746Z,30.70
2019-01-12T08:08:58.400Z,26.03
2019-01-12T08:12:01.044Z,20.47
2019-01-12T08:15:04.565Z,18.83
2019-01-12T08:18:07.303Z,19.03
2019-01-12T08:21:09.942Z,15.37
2019-01-12T08:24:12.670Z,15.63
2019-01-12T08:27:15.383Z,15.57
2019-01-12T08:30:18.333Z,15.10
2019-01-12T08:33:21.064Z,16.70
2019-01-12T08:36:23.717Z,15.37
2019-01-12T08:39:26.372Z,15.33
2019-01-12T08:42:29.028Z,12.00
2019-01-12T08:45:31.817Z,12.67
2019-01-12T08:48:34.450Z,13.23
2019-01-12T08:51:37.213Z,11.43
2019-01-12T08:54:39.915Z,12.10
2019-01-12T08:57:42.579Z,11.80
2019-01-12T09:00:45.262Z,10.33
2019-01-12T09:03:48.006Z,10.67
2019-01-12T09:07:31.031Z,11.40
2019-01-12T09:10:33.701Z,8.73
2019-01-12T09:13:36.303Z,9.87
2019-01-12T09:16:38.992Z,8.07
2019-01-12T09:19:41.634Z,8.23
2019-01-12T09:22:45.206Z,7.50
2019-01-12T09:25:47.865Z,7.20
2019-01-12T09:28:50.452Z,7.20
2019-01-12T09:31:53.038Z,6.87
2019-01-12T09:34:55.851Z,5.73
2019-01-12T09:37:58.481Z,7.23
2019-01-12T09:41:01.136Z,7.00
2019-01-12T09:44:04.908Z,5.10
2019-01-12T09:47:07.640Z,5.20
2019-01-12T09:50:12.949Z,6.50
2019-01-12T09:53:16.812Z,4.87
2019-01-12T09:56:19.497Z,5.00
2019-01-12T09:59:22.471Z,5.40
2019-01-12T10:02:25.143Z,4.70
2019-01-12T10:05:27.767Z,4.80
2019-01-12T10:08:30.457Z,4.83
2019-01-12T10:11:33.223Z,7.43
2019-01-12T10:14:35.827Z,5.47
2019-01-12T10:17:38.488Z,5.40
2019-01-12T10:20:41.183Z,4.40
2019-01-12T10:23:43.939Z,4.87
2019-01-12T10:26:46.586Z,4.73
2019-01-12T10:29:49.207Z,4.50
2019-01-12T10:32:51.847Z,4.97
2019-01-12T10:35:54.421Z,4.10
2019-01-12T10:38:57.126Z,4.07
2019-01-12T10:41:59.797Z,6.10
2019-01-12T10:45:02.457Z,3.30
2019-01-12T10:48:05.102Z,4.73
2019-01-12T10:51:07.772Z,4.07
2019-01-12T10:54:10.426Z,4.20
2019-01-12T10:57:13.074Z,3.93
2019-01-12T11:00:38.127Z,6.30
2019-01-12T11:03:40.848Z,3.93
2019-01-12T11:06:43.506Z,4.47
2019-01-12T11:09:46.148Z,4.43
2019-01-12T11:12:48.894Z,3.37
2019-01-12T11:15:51.536Z,4.10
2019-01-12T11:18:54.187Z,4.07
2019-01-12T11:21:56.913Z,4.27
2019-01-12T11:24:59.718Z,4.23
2019-01-12T11:28:02.454Z,4.57
2019-01-12T11:31:05.280Z,3.67
2019-01-12T11:34:08.000Z,4.00
2019-01-12T11:37:10.751Z,4.40
2019-01-12T11:40:17.983Z,4.80
2019-01-12T11:43:20.640Z,4.07
2019-01-12T11:46:23.248Z,3.20
2019-01-12T11:49:25.931Z,4.23
2019-01-12T11:52:28.662Z,3.17
2019-01-12T11:55:31.366Z,3.07
2019-01-12T11:58:34.052Z,2.90
2019-01-12T12:01:36.933Z,2.93
2019-01-12T12:04:39.706Z,5.03
2019-01-12T12:07:42.503Z,3.40
2019-01-12T12:10:45.163Z,3.53
2019-01-12T12:13:47.971Z,4.33
2019-01-12T12:16:50.625Z,4.83
2019-01-12T12:19:53.368Z,4.13
2019-01-12T12:22:56.114Z,3.43
2019-01-12T12:25:58.801Z,2.63
2019-01-12T12:29:01.362Z,2.97
2019-01-12T12:32:04.093Z,2.83
2019-01-12T12:35:06.826Z,3.47
2019-01-12T12:38:10.044Z,2.83
2019-01-12T12:41:12.732Z,3.30
2019-01-12T12:44:15.414Z,2.70
2019-01-12T12:47:17.974Z,2.77
2019-01-12T12:50:20.676Z,2.80
2019-01-12T12:53:23.299Z,2.67
2019-01-12T12:56:26.224Z,3.43
2019-01-12T12:59:28.942Z,3.13
2019-01-12T13:02:31.627Z,2.87
2019-01-12T13:05:34.418Z,2.20
2019-01-12T13:08:37.153Z,2.23
2019-01-12T13:11:41.537Z,2.17
2019-01-12T13:14:44.222Z,2.73
2019-01-12T13:17:46.874Z,2.60
2019-01-12T13:20:49.568Z,1.90
2019-01-12T13:23:52.276Z,3.07
2019-01-12T13:26:55.025Z,3.23
2019-01-12T13:29:57.735Z,2.43
2019-01-12T13:33:00.356Z,4.30
2019-01-12T13:36:04.705Z,2.10
2019-01-12T13:39:07.654Z,2.83
2019-01-12T13:42:10.287Z,3.27
2019-01-12T13:45:14.774Z,2.83
2019-01-12T13:48:17.432Z,2.60
2019-01-12T13:51:21.342Z,2.27
2019-01-12T13:54:24.107Z,2.60
2019-01-12T13:57:26.858Z,2.93
2019-01-12T14:00:36.557Z,3.23
2019-01-12T14:03:39.170Z,3.43
2019-01-12T14:06:41.896Z,3.40
2019-01-12T14:09:44.590Z,3.17
2019-01-12T14:12:47.254Z,3.27
2019-01-12T14:15:49.958Z,3.67
2019-01-12T14:18:52.638Z,3.80
2019-01-12T14:21:55.357Z,3.50
2019-01-12T14:24:57.995Z,3.40
2019-01-12T14:28:00.775Z,3.23
2019-01-12T14:31:03.675Z,2.40
2019-01-12T14:34:06.296Z,2.57
2019-01-12T14:37:16.480Z,1.57
2019-01-12T14:40:19.231Z,1.70
2019-01-12T14:43:21.964Z,1.87
2019-01-12T14:46:24.634Z,1.93
2019-01-12T14:49:27.376Z,1.50
2019-01-12T14:52:29.982Z,1.80
2019-01-12T14:55:32.618Z,2.23
2019-01-12T14:58:35.297Z,1.97
2019-01-12T15:01:38.042Z,2.03
2019-01-12T15:04:40.723Z,2.00
2019-01-12T15:07:43.599Z,2.07
2019-01-12T15:10:46.325Z,1.60
2019-01-12T15:13:48.959Z,2.47
2019-01-12T15:16:51.676Z,2.20
2019-01-12T15:21:56.825Z,2.57
2019-01-12T15:24:59.634Z,3.43
2019-01-12T15:28:08.806Z,3.20
2019-01-12T15:31:07.088Z,2.70
2019-01-12T15:34:09.939Z,2.60
2019-01-12T15:37:12.726Z,2.10
2019-01-12T15:40:16.094Z,2.00
2019-01-12T15:43:18.883Z,2.10
2019-01-12T15:46:21.781Z,2.20
2019-01-12T15:49:24.548Z,1.73
2019-01-12T15:52:27.211Z,2.20
2019-01-12T15:55:29.938Z,1.80
2019-01-12T15:58:32.685Z,2.63
2019-01-12T16:01:35.406Z,2.00
2019-01-12T16:04:38.235Z,2.10
2019-01-12T16:07:41.028Z,2.33
2019-01-12T16:10:43.802Z,1.90
2019-01-12T16:13:46.583Z,2.00
2019-01-12T16:16:49.272Z,2.43
2019-01-12T16:19:51.866Z,2.00
2019-01-12T16:22:54.588Z,1.70
2019-01-12T16:25:57.421Z,2.33
2019-01-12T16:29:01.206Z,2.23
2019-01-12T16:32:04.026Z,2.23
2019-01-12T16:35:06.723Z,2.53
2019-01-12T16:38:09.335Z,2.77
2019-01-12T16:41:12.190Z,2.90
2019-01-12T16:44:14.739Z,2.70
2019-01-12T16:47:17.386Z,3.77
2019-01-12T16:50:20.120Z,3.17
2019-01-12T16:53:22.935Z,3.73
2019-01-12T16:56:25.636Z,2.90
2019-01-12T16:59:28.533Z,2.93
2019-01-12T17:02:31.204Z,2.90
2019-01-12T17:05:33.904Z,4.17
2019-01-12T17:08:36.496Z,4.30
2019-01-12T17:11:39.220Z,2.87
2019-01-12T17:14:42.376Z,3.47
2019-01-12T17:17:45.092Z,4.07
2019-01-12T17:20:47.767Z,3.40
2019-01-12T17:23:51.074Z,3.40
2019-01-12T17:26:53.793Z,2.97
2019-01-12T17:29:56.370Z,3.50
2019-01-12T17:32:59.137Z,3.17
2019-01-12T17:36:01.848Z,3.23
2019-01-12T17:39:08.654Z,3.13
2019-01-12T17:42:11.661Z,2.93
2019-01-12T17:45:17.726Z,2.70
2019-01-12T17:48:20.815Z,2.40
2019-01-12T17:51:23.460Z,2.53
2019-01-12T17:54:26.545Z,2.40
2019-01-12T17:57:29.327Z,2.43
2019-01-12T18:00:37.941Z,2.67
2019-01-12T18:03:40.601Z,2.77
2019-01-12T18:06:43.299Z,2.90
2019-01-12T18:09:45.914Z,3.73
2019-01-12T18:12:48.618Z,2.97
2019-01-12T18:15:51.166Z,3.03
2019-01-12T18:18:53.924Z,3.57
2019-01-12T18:21:56.579Z,3.63
2019-01-12T18:24:59.399Z,3.37
2019-01-12T18:28:01.966Z,4.37
2019-01-12T18:31:04.712Z,4.70
2019-01-12T18:34:07.359Z,5.60
2019-01-12T18:37:10.043Z,5.20
2019-01-12T18:40:14.353Z,5.90
2019-01-12T18:43:17.188Z,6.77
2019-01-12T18:46:19.881Z,5.73
2019-01-12T18:49:22.602Z,5.80
2019-01-12T18:52:25.262Z,6.20
2019-01-12T18:55:27.891Z,5.63
2019-01-12T18:58:30.633Z,6.20
2019-01-12T19:01:33.407Z,6.47
2019-01-12T19:04:36.175Z,6.20
2019-01-12T19:07:39.110Z,6.37
2019-01-12T19:10:41.877Z,6.40
2019-01-12T19:13:44.518Z,6.70
2019-01-12T19:16:48.554Z,7.73
2019-01-12T19:19:51.327Z,8.73
2019-01-12T19:22:54.773Z,8.87
2019-01-12T19:25:57.488Z,8.67
2019-01-12T19:29:06.391Z,8.90
2019-01-12T19:32:04.741Z,9.07
2019-01-12T19:35:07.457Z,9.23
2019-01-12T19:38:10.321Z,11.57
2019-01-12T19:41:13.169Z,13.87
2019-01-12T19:44:15.867Z,16.37
2019-01-12T19:47:18.601Z,18.20
2019-01-12T19:50:23.269Z,15.33
2019-01-12T19:53:26.680Z,15.90
2019-01-12T19:56:29.452Z,15.67
2019-01-12T19:59:32.175Z,18.60
2019-01-12T20:02:34.839Z,16.77
2019-01-12T20:05:37.518Z,14.10
2019-01-12T20:08:40.275Z,11.40
2019-01-12T20:11:43.058Z,11.57
2019-01-12T20:14:45.763Z,10.67
2019-01-12T20:17:48.487Z,9.13
2019-01-12T20:20:52.226Z,9.33
2019-01-12T20:23:54.896Z,14.87
2019-01-12T20:26:57.605Z,16.67
2019-01-12T20:30:00.230Z,13.80
2019-01-12T20:33:40.648Z,9.77
2019-01-12T20:37:26.987Z,17.47
2019-01-12T20:40:39.372Z,11.60
2019-01-12T20:44:25.628Z,14.57
2019-01-12T20:48:08.914Z,18.57
2019-01-12T20:51:35.614Z,11.83
2019-01-12T20:55:21.870Z,14.07
2019-01-12T20:59:27.933Z,14.37
2019-01-12T21:03:17.638Z,14.03
2019-01-12T21:06:57.752Z,16.07
2019-01-12T21:10:31.697Z,15.53
2019-01-12T21:14:32.482Z,25.83
2019-01-12T21:17:35.250Z,15.40
2019-01-12T21:20:37.987Z,17.23
2019-01-12T21:23:41.501Z,15.90
2019-01-12T21:26:44.507Z,20.90
2019-01-12T21:29:47.232Z,16.40
2019-01-12T21:32:49.880Z,19.60
2019-01-12T21:35:53.423Z,18.83
2019-01-12T21:38:56.014Z,20.80
2019-01-12T21:42:06.148Z,21.10
2019-01-12T21:45:10.722Z,28.67
2019-01-12T21:48:13.416Z,16.73
2019-01-12T21:51:16.132Z,15.37
2019-01-12T21:54:18.737Z,17.47
2019-01-12T21:57:21.321Z,14.53
2019-01-12T22:00:23.947Z,22.47
2019-01-12T22:03:27.494Z,16.87
2019-01-12T22:06:30.179Z,23.87
2019-01-12T22:09:32.967Z,17.23
2019-01-12T22:12:35.696Z,21.03
2019-01-12T22:15:38.456Z,38.67
2019-01-12T22:18:41.139Z,27.60
2019-01-12T22:21:43.875Z,31.73
2019-01-12T22:24:46.555Z,20.53
2019-01-12T22:27:49.302Z,17.23
2019-01-12T22:30:51.985Z,37.67
2019-01-12T22:33:55.704Z,22.03
2019-01-12T22:36:58.548Z,17.70
2019-01-12T22:40:01.173Z,23.90
2019-01-12T22:43:03.818Z,25.40
2019-01-12T22:46:06.418Z,12.63
2019-01-12T22:49:09.037Z,20.60
2019-01-12T22:52:11.837Z,19.10
2019-01-12T22:55:14.426Z,14.53
2019-01-12T22:58:17.134Z,16.67
2019-01-12T23:01:38.730Z,24.07
2019-01-12T23:04:41.342Z,20.50
2019-01-12T23:07:44.021Z,14.10
2019-01-12T23:10:46.711Z,14.93
2019-01-12T23:13:49.405Z,20.17
2019-01-12T23:16:52.206Z,15.60
2019-01-12T23:19:54.839Z,16.77
2019-01-12T23:22:57.461Z,25.43
2019-01-12T23:26:00.187Z,15.00
2019-01-12T23:29:03.557Z,15.30
2019-01-12T23:32:06.227Z,18.83
2019-01-12T23:35:10.105Z,13.53
2019-01-12T23:38:12.779Z,19.27
2019-01-12T23:41:15.386Z,23.80
2019-01-12T23:44:17.945Z,14.80
2019-01-12T23:47:20.729Z,17.57
2019-01-12T23:50:23.383Z,11.37
2019-01-12T23:53:26.932Z,11.63
2019-01-12T23:56:29.564Z,18.30
2019-01-12T23:59:32.178Z,15.10
